Time;durP1;ratioP1;P1;durP2;ratioP2;P2;SDS_P1;SDS_P2;PMS_P1;PMS_P2;Temp;Humidity;BMP_temperature;BMP_pressure;BME280_temperature;BME280_humidity;BME280_pressure;Samples;Min_cycle;Max_cycle;Signal;HPM_P1;HPM_P2
2023/10/25 00:00:49;;;;;;;24.97;9.77;;;;;;;-144.30;74.16;85452.09;5031583;28;20302;-81
2023/10/25 00:03:18;;;;;;;22.63;9.60;;;;;;;-144.30;74.68;85251.31;5031046;28;20232;-82
2023/10/25 00:05:46;;;;;;;25.03;9.67;;;;;;;-144.30;75.06;85481.91;5031511;28;20195;-80
2023/10/25 00:08:13;;;;;;;26.73;9.63;;;;;;;-144.30;75.25;85491.84;5031186;28;20283;-81
2023/10/25 00:10:40;;;;;;;22.47;8.73;;;;;;;-144.30;75.25;85487.88;5031583;28;20211;-82
2023/10/25 00:13:07;;;;;;;20.13;8.70;;;;;;;-144.30;75.91;85485.88;5031160;28;20212;-83
2023/10/25 00:15:34;;;;;;;25.53;10.10;;;;;;;-144.30;76.34;85794.03;5031122;28;20589;-82
2023/10/25 00:18:01;;;;;;;22.37;9.73;;;;;;;-144.30;76.45;85515.72;5030842;28;20224;-83
2023/10/25 00:20:32;;;;;;;26.70;9.77;;;;;;;-144.30;76.53;85539.56;5031266;28;20204;-82
2023/10/25 00:23:00;;;;;;;20.33;9.37;;;;;;;-144.30;76.58;85525.66;5030879;28;20277;-81
2023/10/25 00:25:26;;;;;;;26.33;10.00;;;;;;;-144.30;77.45;85253.31;5030938;28;20212;-83
2023/10/25 00:27:53;;;;;;;31.70;9.67;;;;;;;-144.30;77.26;85541.56;5031231;28;20579;-83
2023/10/25 00:30:20;;;;;;;20.63;9.33;;;;;;;-144.30;77.09;85517.69;5031332;28;20191;-82
2023/10/25 00:32:48;;;;;;;23.90;9.90;;;;;;;-144.30;77.47;85559.44;5030926;28;20259;-82
2023/10/25 00:35:15;;;;;;;26.07;9.80;;;;;;;-144.30;77.60;85438.19;5030257;28;20291;-82
2023/10/25 00:37:46;;;;;;;24.97;9.80;;;;;;;-144.30;77.30;85529.63;5033553;28;20256;-83
2023/10/25 00:40:16;;;;;;;25.67;9.43;;;;;;;-144.30;77.36;85535.59;5033746;28;20215;-81
2023/10/25 00:42:53;;;;;;;22.90;9.97;;;;;;;-144.30;77.49;85446.13;5034384;28;20549;-82
2023/10/25 00:45:20;;;;;;;25.03;9.50;;;;;;;-144.30;77.42;85515.72;5032708;28;20581;-82
2023/10/25 00:47:47;;;;;;;26.63;9.27;;;;;;;-144.30;77.61;85436.19;5033214;28;20229;-81
2023/10/25 00:50:21;;;;;;;22.03;9.67;;;;;;;-144.30;78.08;85543.53;5032959;28;20220;-81
2023/10/25 00:52:49;;;;;;;19.93;9.70;;;;;;;-144.30;78.22;85511.75;5034211;28;20224;-83
2023/10/25 00:55:16;;;;;;;24.37;10.23;;;;;;;-144.30;78.48;85559.44;5033214;28;20223;-82
2023/10/25 00:57:46;;;;;;;31.73;9.43;;;;;;;-144.30;78.42;86157.91;5032923;28;20235;-82
2023/10/25 01:00:14;;;;;;;17.00;9.10;;;;;;;-144.30;77.94;85471.97;5032673;28;20193;-81
2023/10/25 01:02:40;;;;;;;22.10;9.40;;;;;;;-144.30;77.47;85464.03;5032857;28;20194;-81
2023/10/25 01:05:08;;;;;;;22.20;9.30;;;;;;;-144.30;76.91;85458.06;5032835;28;20207;-81
2023/10/25 01:07:36;;;;;;;17.90;8.37;;;;;;;-144.30;76.38;85539.56;5032646;28;20225;-81
2023/10/25 01:10:05;;;;;;;19.93;8.63;;;;;;;-144.30;76.09;85495.84;5032578;28;20202;-81
2023/10/25 01:12:32;;;;;;;22.43;8.47;;;;;;;-144.30;76.70;85573.38;5032396;28;20197;-81
2023/10/25 01:15:01;;;;;;;17.83;8.67;;;;;;;-144.30;76.27;85547.53;5032725;28;20589;-81
2023/10/25 01:17:28;;;;;;;16.67;8.47;;;;;;;-144.30;76.20;85571.38;5032469;28;20225;-82
2023/10/25 01:19:55;;;;;;;20.40;8.20;;;;;;;-144.30;76.03;85555.47;5033048;28;20371;-82
2023/10/25 01:22:26;;;;;;;30.23;8.90;;;;;;;-144.30;76.66;85563.41;5032554;28;20204;-82
2023/10/25 01:24:53;;;;;;;27.37;8.30;;;;;;;-144.30;76.83;85529.63;5032509;28;20189;-81
2023/10/25 01:27:22;;;;;;;21.40;7.97;;;;;;;-144.30;76.51;85559.44;5032254;28;20197;-81
2023/10/25 01:29:49;;;;;;;22.27;8.37;;;;;;;-144.30;76.98;85577.34;5032419;28;20201;-83
2023/10/25 01:32:16;;;;;;;23.33;8.00;;;;;;;-144.30;76.88;85599.22;5032040;28;20197;-82
2023/10/25 01:34:43;;;;;;;19.57;7.97;;;;;;;-144.30;77.38;85388.47;4990591;28;1200912;-81
2023/10/25 01:37:10;;;;;;;17.70;6.90;;;;;;;-144.30;77.48;85642.94;5033911;28;20217;-82
2023/10/25 01:39:39;;;;;;;14.33;7.70;;;;;;;-144.30;77.32;85114.16;5033879;28;20204;-82
2023/10/25 01:42:07;;;;;;;17.30;8.13;;;;;;;-144.30;76.81;85475.94;5033682;28;20286;-82
2023/10/25 01:44:37;;;;;;;21.47;7.97;;;;;;;-144.30;76.47;85579.31;5035063;28;20197;-83
2023/10/25 01:47:05;;;;;;;22.73;8.37;;;;;;;-144.30;76.66;84925.31;5034251;28;20200;-82
2023/10/25 01:49:32;;;;;;;16.40;7.87;;;;;;;-144.30;76.51;85619.09;5033332;28;20289;-83
2023/10/25 01:52:03;;;;;;;17.00;8.90;;;;;;;-144.30;76.76;85539.56;5033640;28;20655;-82
2023/10/25 01:54:30;;;;;;;23.63;7.43;;;;;;;-144.30;76.68;85599.22;5033606;28;20647;-81
2023/10/25 01:56:58;;;;;;;16.73;8.00;;;;;;;-144.30;77.26;85475.94;5033220;28;20203;-81
2023/10/25 01:59:25;;;;;;;18.77;7.83;;;;;;;-144.30;77.73;85595.22;5033906;28;20194;-82
2023/10/25 02:01:52;;;;;;;15.40;7.83;;;;;;;-144.30;77.83;85607.16;5033141;28;20282;-82
2023/10/25 02:04:19;;;;;;;16.20;7.27;;;;;;;-144.30;77.91;85607.16;5033296;28;20208;-81
2023/10/25 02:06:51;;;;;;;22.10;7.27;;;;;;;-144.30;77.89;85609.16;5033241;28;20292;-82
2023/10/25 02:09:18;;;;;;;23.73;7.40;;;;;;;-144.30;77.44;86143.97;5032823;28;20193;-83
2023/10/25 02:11:45;;;;;;;13.63;7.63;;;;;;;-144.30;77.60;85577.34;5032964;28;20197;-81
2023/10/25 02:14:13;;;;;;;18.50;7.50;;;;;;;-144.30;78.11;85591.25;5033288;28;20216;-81
2023/10/25 02:16:40;;;;;;;16.50;7.70;;;;;;;-144.30;78.17;85569.38;5032691;28;20197;-81
2023/10/25 02:19:07;;;;;;;21.07;8.50;;;;;;;-144.30;78.18;85569.38;5032164;28;20232;-82
2023/10/25 02:21:35;;;;;;;14.47;7.97;;;;;;;-144.30;78.23;85591.25;5032504;28;20193;-82
2023/10/25 02:24:03;;;;;;;16.27;7.77;;;;;;;-144.30;78.01;85545.53;5032725;28;20201;-82
2023/10/25 02:26:30;;;;;;;22.30;8.27;;;;;;;-144.30;78.12;85555.47;5032460;28;20189;-82
2023/10/25 02:28:57;;;;;;;26.00;8.20;;;;;;;-144.30;78.31;85591.25;5033006;28;20198;-82
2023/10/25 02:31:25;;;;;;;17.87;8.00;;;;;;;-144.30;79.02;85619.09;5032488;28;20197;-81
2023/10/25 02:33:52;;;;;;;25.50;7.73;;;;;;;-144.30;79.41;85543.53;5032095;28;20221;-81
2023/10/25 02:36:19;;;;;;;18.03;7.23;;;;;;;-144.30;78.96;85611.13;5031824;28;20320;-81
2023/10/25 02:38:48;;;;;;;16.47;7.00;;;;;;;-144.30;78.54;85581.31;5032361;28;20316;-82
2023/10/25 02:41:15;;;;;;;31.53;8.87;;;;;;;-144.30;78.07;85545.53;5032892;28;20201;-83
2023/10/25 02:43:42;;;;;;;23.13;8.67;;;;;;;-144.30;77.94;85613.13;5032693;28;20595;-82
2023/10/25 02:46:11;;;;;;;14.77;6.97;;;;;;;-144.30;77.64;85571.38;5032326;28;20396;-82
2023/10/25 02:48:39;;;;;;;17.27;7.17;;;;;;;-144.30;76.92;85531.63;5032361;28;20198;-83
2023/10/25 02:51:07;;;;;;;22.27;7.70;;;;;;;-144.30;76.78;85583.31;5032562;28;20293;-82
2023/10/25 02:53:34;;;;;;;15.53;7.27;;;;;;;-144.30;76.66;85531.63;5032753;28;20209;-82
2023/10/25 02:56:01;;;;;;;17.57;7.10;;;;;;;-144.30;77.00;85571.38;5032350;28;20223;-83
2023/10/25 02:58:28;;;;;;;15.43;6.97;;;;;;;-144.30;76.98;85557.47;5031310;28;20217;-82
2023/10/25 03:00:56;;;;;;;14.43;7.30;;;;;;;-144.30;77.20;85569.38;5032377;28;20285;-82
2023/10/25 03:03:23;;;;;;;14.37;7.10;;;;;;;-144.30;77.14;85547.53;5031882;28;20201;-83
2023/10/25 03:05:51;;;;;;;14.27;6.80;;;;;;;-144.30;76.84;85603.19;5032684;28;20193;-82
2023/10/25 03:08:17;;;;;;;28.07;8.23;;;;;;;-144.30;77.15;85543.53;5032827;28;20209;-87
2023/10/25 03:10:44;;;;;;;18.47;7.73;;;;;;;-144.30;77.71;85597.22;5032511;28;20284;-85
2023/10/25 03:13:11;;;;;;;19.57;7.80;;;;;;;-144.30;77.73;85853.69;5032074;28;20669;-85
2023/10/25 03:15:38;;;;;;;24.20;7.87;;;;;;;-144.30;78.01;85587.28;5032092;28;20197;-84
2023/10/25 03:18:05;;;;;;;22.97;7.27;;;;;;;-144.30;78.13;85635.00;5032126;28;20217;-84
2023/10/25 03:20:33;;;;;;;16.70;6.93;;;;;;;-144.30;78.09;85638.97;5032398;28;20204;-84
2023/10/25 03:23:02;;;;;;;14.03;6.97;;;;;;;-144.30;78.01;85593.25;5031968;28;20197;-84
2023/10/25 03:25:29;;;;;;;21.07;7.60;;;;;;;-144.30;78.25;85599.22;5031853;28;20194;-84
2023/10/25 03:27:55;;;;;;;16.07;6.87;;;;;;;-144.30;78.42;85627.03;5031746;28;20586;-84
2023/10/25 03:30:22;;;;;;;22.77;7.23;;;;;;;-144.30;78.67;85646.91;5032506;28;20288;-84
2023/10/25 03:32:49;;;;;;;18.47;6.83;;;;;;;-144.30;78.77;85631.03;5031391;28;20205;-84
2023/10/25 03:35:16;;;;;;;18.40;8.37;;;;;;;-144.30;79.10;85519.69;5029964;28;20241;-81
2023/10/25 03:37:43;;;;;;;16.90;7.70;;;;;;;-144.30;79.16;85636.97;5024755;28;20841;-80
2023/10/25 03:40:13;;;;;;;24.80;8.57;;;;;;;-144.30;79.39;85646.91;5028600;28;20193;-80
2023/10/25 03:42:40;;;;;;;22.43;7.87;;;;;;;-144.30;79.15;85601.19;5030467;28;20204;-80
2023/10/25 03:45:08;;;;;;;20.53;8.03;;;;;;;-144.30;78.39;85603.19;5030675;28;20276;-80
2023/10/25 03:47:37;;;;;;;18.00;7.47;;;;;;;-144.30;78.59;85623.06;5031273;28;20205;-80
2023/10/25 03:50:04;;;;;;;16.77;7.37;;;;;;;-144.30;78.68;85432.22;5031597;28;20197;-80
2023/10/25 03:52:31;;;;;;;14.40;7.70;;;;;;;-144.30;78.49;85969.00;5030949;28;20205;-80
2023/10/25 03:54:58;;;;;;;22.03;8.60;;;;;;;-144.30;78.98;85638.97;5031371;28;20193;-81
2023/10/25 03:57:27;;;;;;;24.87;7.70;;;;;;;-144.30;79.29;85615.13;5032670;28;20200;-85
2023/10/25 03:59:54;;;;;;;20.03;7.70;;;;;;;-144.30;80.14;85573.38;5030790;28;20243;-84
2023/10/25 04:02:21;;;;;;;25.00;7.87;;;;;;;-144.30;79.79;85611.13;5030968;28;20662;-83
2023/10/25 04:04:48;;;;;;;21.17;7.83;;;;;;;-144.30;79.69;85636.97;5030907;28;20204;-84
2023/10/25 04:07:15;;;;;;;25.40;7.67;;;;;;;-144.30;79.05;85575.34;5030994;28;20190;-87
2023/10/25 04:09:42;;;;;;;20.97;8.40;;;;;;;-144.30;79.14;85611.13;5030758;28;20587;-82
2023/10/25 04:12:12;;;;;;;14.43;7.83;;;;;;;-144.30;79.32;85648.91;5028265;28;20219;-84
2023/10/25 04:14:44;;;;;;;23.07;8.47;;;;;;;-144.30;79.22;85607.16;5030627;28;20190;-83
2023/10/25 04:17:11;;;;;;;19.30;7.30;;;;;;;-144.30;78.61;85468.00;5028403;28;20189;-84
2023/10/25 04:19:38;;;;;;;15.10;7.83;;;;;;;-144.30;78.98;85611.13;5030867;28;20713;-84
2023/10/25 04:22:05;;;;;;;17.67;7.23;;;;;;;-144.30;78.81;85627.03;5027921;28;20213;-83
2023/10/25 04:24:32;;;;;;;18.20;7.67;;;;;;;-144.30;78.75;85623.06;5050241;28;20593;-83
2023/10/25 04:27:00;;;;;;;16.93;7.33;;;;;;;-144.30;78.85;85491.84;5050724;28;20616;-80
2023/10/25 04:29:27;;;;;;;24.27;7.87;;;;;;;-144.30;78.75;85607.16;5049406;28;20599;-82
2023/10/25 04:31:56;;;;;;;20.40;7.30;;;;;;;-144.30;78.75;85537.59;5030743;28;20207;-81
2023/10/25 04:34:23;;;;;;;21.83;7.87;;;;;;;-144.30;78.73;85613.13;5032831;28;20211;-82
2023/10/25 04:36:50;;;;;;;19.83;7.43;;;;;;;-144.30;78.24;85587.28;5031687;28;20649;-82
2023/10/25 04:39:17;;;;;;;18.53;7.93;;;;;;;-144.30;77.48;85577.34;5028557;28;20217;-81
2023/10/25 04:41:43;;;;;;;20.10;7.20;;;;;;;-144.30;77.46;85579.31;5030233;28;20323;-82
2023/10/25 04:44:10;;;;;;;24.97;7.77;;;;;;;-144.30;77.56;85571.38;5028911;28;20212;-84
2023/10/25 04:46:37;;;;;;;15.93;7.73;;;;;;;-144.30;77.32;85535.59;5030465;28;20205;-83
2023/10/25 04:49:06;;;;;;;15.47;7.93;;;;;;;-144.30;76.90;85440.16;5030602;28;20288;-83
2023/10/25 04:51:33;;;;;;;21.63;8.43;;;;;;;-144.30;76.92;85587.28;5030347;28;20201;-83
2023/10/25 04:53:59;;;;;;;20.20;8.50;;;;;;;-144.30;77.47;85519.69;5031392;28;20777;-80
2023/10/25 04:56:26;;;;;;;25.13;8.03;;;;;;;-144.30;77.13;85547.53;5030401;28;20216;-81
2023/10/25 04:58:53;;;;;;;22.57;8.03;;;;;;;-144.30;77.08;85615.13;5030409;28;20229;-81
2023/10/25 05:01:21;;;;;;;31.30;7.97;;;;;;;-144.30;76.90;85537.59;5029659;28;20272;-80
2023/10/25 05:03:48;;;;;;;25.43;8.47;;;;;;;-144.30;77.00;85531.63;5029245;28;20224;-81
2023/10/25 05:06:17;;;;;;;25.50;8.13;;;;;;;-144.30;76.94;85617.09;5029657;28;20193;-80
2023/10/25 05:08:44;;;;;;;38.00;9.13;;;;;;;-144.30;76.80;85344.75;5029885;28;20205;-80
2023/10/25 05:11:15;;;;;;;25.07;8.30;;;;;;;-144.30;76.90;85519.69;5030118;28;20696;-80
2023/10/25 05:13:43;;;;;;;21.93;7.97;;;;;;;-144.30;76.41;85444.16;5030009;28;20529;-78
2023/10/25 05:16:11;;;;;;;30.10;8.37;;;;;;;-144.30;76.92;85575.34;5030244;28;20194;-77
2023/10/25 05:18:39;;;;;;;26.00;9.77;;;;;;;-144.30;76.94;85569.38;5030325;28;20230;-80
2023/10/25 05:21:07;;;;;;;23.77;9.23;;;;;;;-144.30;76.32;85555.47;5030145;28;20208;-78
2023/10/25 05:23:35;;;;;;;29.23;10.10;;;;;;;-144.30;76.78;85531.63;5033675;28;20224;-79
2023/10/25 05:26:04;;;;;;;33.93;10.30;;;;;;;-144.30;76.81;85442.16;5033313;28;20197;-79
2023/10/25 05:28:32;;;;;;;40.17;15.40;;;;;;;-144.30;76.72;85428.25;5034256;28;20678;-79
2023/10/25 05:31:01;;;;;;;41.73;16.60;;;;;;;-144.30;77.27;85499.81;5033600;28;20199;-78
2023/10/25 05:33:31;;;;;;;47.10;17.03;;;;;;;-144.30;77.07;85519.69;5033899;28;20213;-79
2023/10/25 05:35:58;;;;;;;52.37;17.87;;;;;;;-144.30;77.29;85591.25;5033635;28;20229;-78
2023/10/25 05:38:25;;;;;;;41.07;16.33;;;;;;;-144.30;76.85;85571.38;5033390;28;20212;-78
2023/10/25 05:40:54;;;;;;;38.80;15.73;;;;;;;-144.30;77.13;85571.38;5033471;28;20797;-78
2023/10/25 05:43:27;;;;;;;44.97;15.63;;;;;;;-144.30;77.05;85527.63;5033446;28;20201;-77
2023/10/25 05:45:54;;;;;;;34.60;15.17;;;;;;;-144.30;77.29;85535.59;5033558;28;20189;-77
2023/10/25 05:48:22;;;;;;;36.60;15.17;;;;;;;-144.30;77.68;85587.28;5033612;28;20201;-76
2023/10/25 05:50:51;;;;;;;42.73;15.20;;;;;;;-144.30;77.75;85583.31;5032924;28;20240;-77
2023/10/25 05:53:19;;;;;;;49.87;15.83;;;;;;;-144.30;78.43;85416.31;5032582;28;20195;-79
2023/10/25 05:55:47;;;;;;;46.93;15.60;;;;;;;-144.30;78.62;85603.19;5029592;28;20198;-78
2023/10/25 05:58:16;;;;;;;40.13;14.37;;;;;;;-144.30;78.93;85593.25;5032689;28;20678;-81
2023/10/25 06:00:48;;;;;;;53.90;17.43;;;;;;;-144.30;78.40;85575.34;5033098;28;20205;-77
2023/10/25 06:03:18;;;;;;;42.73;15.60;;;;;;;-144.30;78.65;85605.19;5032649;28;20288;-77
2023/10/25 06:05:51;;;;;;;44.80;14.53;;;;;;;-144.30;78.59;85627.03;5033049;28;20197;-76
2023/10/25 06:08:18;;;;;;;34.97;12.83;;;;;;;-144.30;77.72;85619.09;5032606;28;20197;-80
2023/10/25 06:10:46;;;;;;;48.10;12.83;;;;;;;-144.30;78.14;85627.03;5032877;28;20209;-79
2023/10/25 06:13:13;;;;;;;34.87;12.30;;;;;;;-144.30;78.28;85599.22;5032838;28;20198;-78
2023/10/25 06:15:41;;;;;;;28.43;11.93;;;;;;;-144.30;78.75;85638.97;5032175;28;20197;-78
2023/10/25 06:18:10;;;;;;;34.23;11.60;;;;;;;-144.30;78.45;85539.56;5032351;28;20200;-79
2023/10/25 06:20:37;;;;;;;26.23;10.10;;;;;;;-144.30;77.95;85617.09;5032709;28;20221;-78
2023/10/25 06:23:04;;;;;;;25.53;10.67;;;;;;;-144.30;77.95;85654.88;5032899;28;20292;-80
2023/10/25 06:25:31;;;;;;;37.47;10.80;;;;;;;-144.30;78.11;85424.25;5029672;28;20208;-79
2023/10/25 06:27:59;;;;;;;35.43;10.50;;;;;;;-144.30;77.60;85625.06;5033372;28;20193;-80
2023/10/25 06:30:26;;;;;;;24.00;10.40;;;;;;;-144.30;77.89;85680.72;5031805;28;20189;-80
2023/10/25 06:32:55;;;;;;;31.90;11.40;;;;;;;-144.30;78.38;85650.91;5033123;28;20196;-80
2023/10/25 06:35:21;;;;;;;34.30;10.80;;;;;;;-144.30;78.60;85607.16;5030822;28;20232;-79
2023/10/25 06:37:49;;;;;;;40.77;12.23;;;;;;;-144.30;78.75;85635.00;5021278;28;20292;-80
2023/10/25 06:40:17;;;;;;;39.67;13.77;;;;;;;-144.30;78.89;85629.03;5030458;28;20248;-83
2023/10/25 06:42:47;;;;;;;39.20;16.80;;;;;;;-144.30;78.86;85642.94;5033119;28;20608;-81
2023/10/25 06:45:15;;;;;;;29.97;14.50;;;;;;;-144.30;78.89;85642.94;5031991;28;21176;-80
2023/10/25 06:47:46;;;;;;;30.60;14.03;;;;;;;-144.30;78.62;85633.00;5029362;28;20201;-78
2023/10/25 06:50:17;;;;;;;38.53;12.63;;;;;;;-144.30;78.08;85625.06;5031894;28;20201;-80
2023/10/25 06:52:44;;;;;;;39.23;12.67;;;;;;;-144.30;77.62;85563.41;5032293;28;20564;-82
2023/10/25 06:55:14;;;;;;;43.37;11.17;;;;;;;-144.30;77.41;85607.16;5031854;28;20583;-81
2023/10/25 06:57:42;;;;;;;35.50;12.63;;;;;;;-144.30;77.41;85595.22;5031749;28;20661;-78
2023/10/25 07:00:10;;;;;;;51.13;12.20;;;;;;;-144.30;77.40;85706.56;5031596;28;20671;-81
2023/10/25 07:02:44;;;;;;;39.63;12.70;;;;;;;-144.30;77.11;85571.38;5031480;28;20189;-80
2023/10/25 07:05:15;;;;;;;36.03;12.43;;;;;;;-144.30;77.21;86255.34;5031570;28;20204;-78
2023/10/25 07:07:43;;;;;;;37.50;12.97;;;;;;;-144.30;77.26;85559.44;5041223;28;20197;-75
2023/10/25 07:10:15;;;;;;;35.20;13.23;;;;;;;-144.30;77.94;85555.47;5051870;28;20196;-74
2023/10/25 07:12:42;;;;;;;30.87;13.13;;;;;;;-144.30;77.70;85567.41;5051469;28;20207;-76
2023/10/25 07:15:10;;;;;;;31.87;12.17;;;;;;;-144.30;76.88;85523.66;5051856;28;20201;-76
2023/10/25 07:17:37;;;;;;;33.53;12.17;;;;;;;-144.30;76.50;85535.59;5051037;28;20209;-77
2023/10/25 07:20:05;;;;;;;40.30;12.50;;;;;;;-144.30;76.40;85517.69;5051535;28;20226;-77
2023/10/25 07:22:34;;;;;;;36.13;14.43;;;;;;;-144.30;76.11;85505.78;5046369;28;20200;-76
2023/10/25 07:25:00;;;;;;;41.37;13.80;;;;;;;-144.30;75.79;86008.78;5030737;28;20197;-76
2023/10/25 07:27:27;;;;;;;32.80;12.50;;;;;;;-144.30;75.24;85497.81;5030895;28;20800;-77
2023/10/25 07:29:54;;;;;;;41.87;13.63;;;;;;;-144.30;74.33;85468.00;5031262;28;20193;-77
2023/10/25 07:32:21;;;;;;;42.50;13.27;;;;;;;-144.30;74.29;85388.47;5030901;28;20197;-77
2023/10/25 07:34:48;;;;;;;36.67;13.93;;;;;;;-144.30;73.70;85436.19;5030973;28;20229;-77
2023/10/25 07:37:15;;;;;;;38.33;14.10;;;;;;;-144.30;73.82;85434.22;5031045;28;20233;-76
2023/10/25 07:39:44;;;;;;;27.30;13.23;;;;;;;-144.30;73.48;85553.47;5030590;28;20273;-76
2023/10/25 07:42:11;;;;;;;43.27;13.80;;;;;;;-144.30;72.38;85420.28;5030808;28;20201;-77
2023/10/25 07:44:38;;;;;;;30.87;13.13;;;;;;;-144.30;72.94;85438.19;5030215;28;20197;-76
2023/10/25 07:47:05;;;;;;;39.03;13.63;;;;;;;-144.30;72.78;85575.34;5031201;28;20197;-77
2023/10/25 07:49:34;;;;;;;33.97;13.27;;;;;;;-144.30;72.36;85420.28;5030691;28;20288;-77
2023/10/25 07:52:01;;;;;;;27.17;12.77;;;;;;;-144.30;72.24;85368.59;5030811;28;20691;-77
2023/10/25 07:54:28;;;;;;;34.97;12.83;;;;;;;-144.30;72.24;85436.19;5030378;28;20197;-80
2023/10/25 07:56:56;;;;;;;46.17;12.90;;;;;;;-144.30;71.83;85368.59;5030713;28;20204;-78
2023/10/25 07:59:23;;;;;;;46.83;14.20;;;;;;;-144.30;71.71;85384.50;5030373;28;20232;-79
2023/10/25 08:01:51;;;;;;;27.50;13.20;;;;;;;-144.30;71.47;85382.53;5030929;28;20204;-78
2023/10/25 08:04:18;;;;;;;42.53;13.50;;;;;;;-144.30;71.12;85374.56;5030712;28;20673;-79
2023/10/25 08:06:45;;;;;;;45.73;14.00;;;;;;;-144.30;71.14;85348.72;5030466;28;20251;-77
2023/10/25 08:09:12;;;;;;;35.90;13.80;;;;;;;-144.30;71.45;85235.41;5030324;28;20193;-78
2023/10/25 08:11:39;;;;;;;37.20;14.57;;;;;;;-144.30;71.50;85378.53;5026448;28;20198;-78
2023/10/25 08:14:08;;;;;;;57.30;17.30;;;;;;;-144.30;71.59;85360.66;5030639;28;20688;-78
2023/10/25 08:16:39;;;;;;;32.53;15.40;;;;;;;-144.30;71.67;85366.63;5029258;28;20249;-83
2023/10/25 08:19:06;;;;;;;41.97;19.03;;;;;;;-144.30;71.81;85372.56;5030750;28;20193;-83
2023/10/25 08:21:33;;;;;;;45.93;16.03;;;;;;;-144.30;71.63;85358.66;5031010;28;20571;-84
2023/10/25 08:24:01;;;;;;;46.87;15.40;;;;;;;-144.30;72.32;85380.53;5031293;28;20251;-83
2023/10/25 08:26:28;;;;;;;42.97;15.13;;;;;;;-144.30;72.27;85334.81;5030833;28;20673;-83
2023/10/25 08:28:55;;;;;;;56.20;21.23;;;;;;;-144.30;72.20;85247.34;5030973;28;20210;-83
2023/10/25 08:31:23;;;;;;;45.28;18.23;;;;;;;-144.30;71.57;85221.50;5046767;28;20215;-80
2023/10/25 08:33:50;;;;;;;44.27;16.33;;;;;;;-144.30;71.16;85370.59;5050519;28;20199;-81
2023/10/25 08:36:17;;;;;;;36.80;15.60;;;;;;;-144.30;70.52;85483.91;5050087;28;20224;-80
2023/10/25 08:38:44;;;;;;;35.78;15.38;;;;;;;-144.30;69.99;85269.22;5050368;28;20203;-82
2023/10/25 08:41:11;;;;;;;36.03;14.30;;;;;;;-144.30;70.35;85308.97;5050435;28;20319;-81
2023/10/25 08:43:39;;;;;;;41.35;14.70;;;;;;;-144.30;70.08;85348.72;5050529;28;20589;-78
2023/10/25 08:46:06;;;;;;;48.73;14.40;;;;;;;-144.30;69.92;85318.91;5050329;28;20203;-79
2023/10/25 08:48:35;;;;;;;49.40;14.75;;;;;;;-144.30;70.34;85308.97;5027709;28;20727;-81
2023/10/25 08:51:03;;;;;;;35.97;15.52;;;;;;;-144.30;70.14;85297.03;5022369;28;20634;-82
2023/10/25 08:53:31;;;;;;;33.17;13.82;;;;;;;-144.30;69.85;85257.28;5049468;28;20642;-81
2023/10/25 08:55:59;;;;;;;37.60;14.90;;;;;;;-144.30;69.58;85263.25;5045975;28;20627;-81
2023/10/25 08:58:27;;;;;;;38.58;13.75;;;;;;;-144.30;69.27;85112.16;5035759;28;20285;-79
2023/10/25 09:00:55;;;;;;;33.97;14.77;;;;;;;-144.30;68.58;85257.28;5054722;28;20224;-77
2023/10/25 09:03:43;;;;;;;67.93;28.60;;;;;;;-144.30;68.05;85253.31;5053218;28;20200;-80
2023/10/25 09:06:11;;;;;;;35.30;13.20;;;;;;;-144.30;67.09;85537.59;5033589;28;20693;-79
2023/10/25 09:08:39;;;;;;;33.92;12.25;;;;;;;-144.30;66.87;85130.06;5033241;28;20649;-81
2023/10/25 09:11:08;;;;;;;33.60;12.63;;;;;;;-144.30;67.21;85217.53;5035295;28;20201;-81
2023/10/25 09:13:37;;;;;;;42.72;13.55;;;;;;;-144.30;67.23;85251.31;5033332;28;20683;-81
2023/10/25 09:16:05;;;;;;;37.22;12.07;;;;;;;-144.30;67.19;85191.69;5032860;28;20193;-81
2023/10/25 09:18:33;;;;;;;38.83;14.93;;;;;;;-144.30;66.87;85219.50;5032727;28;20189;-81
2023/10/25 09:21:03;;;;;;;40.95;18.00;;;;;;;-144.30;66.87;85213.53;5030481;28;20239;-81
2023/10/25 09:23:30;;;;;;;42.50;17.80;;;;;;;-144.30;66.66;85201.63;5033109;28;20194;-80
2023/10/25 09:25:59;;;;;;;54.30;18.48;;;;;;;-144.30;66.59;85138.00;5033709;28;20301;-80
2023/10/25 09:28:29;;;;;;;35.50;16.15;;;;;;;-144.30;66.08;84967.06;5033552;28;20247;-80
2023/10/25 09:30:57;;;;;;;35.80;14.57;;;;;;;-144.30;65.85;85143.97;5033257;28;20271;-81
2023/10/25 09:33:24;;;;;;;45.88;15.40;;;;;;;-144.30;65.52;85177.75;5033236;28;20216;-80
2023/10/25 09:35:52;;;;;;;27.05;13.90;;;;;;;-144.30;65.77;85120.13;5032281;28;20750;-80
2023/10/25 09:38:21;;;;;;;38.92;13.20;;;;;;;-144.30;65.71;85169.81;5033316;28;20570;-78
2023/10/25 09:40:48;;;;;;;37.58;13.07;;;;;;;-144.30;65.23;85153.91;5033188;28;20243;-79
2023/10/25 09:43:19;;;;;;;32.00;12.30;;;;;;;-144.30;65.47;85163.84;5033324;28;20200;-80
2023/10/25 09:45:52;;;;;;;27.83;11.75;;;;;;;-144.30;65.15;85185.72;5033041;28;20712;-79
2023/10/25 09:48:20;;;;;;;34.28;11.57;;;;;;;-144.30;64.75;85038.63;5033158;28;20197;-80
2023/10/25 09:50:57;;;;;;;32.72;12.35;;;;;;;-144.30;64.64;85141.97;5033168;28;20677;-80
2023/10/25 09:53:28;;;;;;;28.55;12.45;;;;;;;-144.30;65.00;85173.78;5033031;28;20233;-79
2023/10/25 09:56:02;;;;;;;42.28;17.90;;;;;;;-144.30;64.45;85086.31;5032946;28;20219;-79
2023/10/25 09:58:33;;;;;;;26.98;11.15;;;;;;;-144.30;63.68;85106.22;5032822;28;20196;-79
2023/10/25 10:01:03;;;;;;;28.88;11.88;;;;;;;-144.30;63.72;85100.25;5033081;28;20605;-80
2023/10/25 10:03:38;;;;;;;26.73;10.75;;;;;;;-144.30;63.59;85018.75;5032591;28;20204;-79
2023/10/25 10:06:13;;;;;;;27.95;10.65;;;;;;;-144.30;63.59;85102.22;5032848;28;20220;-82
2023/10/25 10:08:53;;;;;;;27.02;10.38;;;;;;;-144.30;63.14;85098.25;5032334;28;20279;-80
2023/10/25 10:11:26;;;;;;;25.20;10.45;;;;;;;-144.30;62.61;84994.91;5032763;28;20559;-79
2023/10/25 10:14:27;;;;;;;22.02;9.95;;;;;;;-144.30;61.87;85062.47;5032825;28;20251;-77
2023/10/25 10:16:58;;;;;;;40.47;14.80;;;;;;;-144.30;61.64;85018.75;5027150;28;20219;-81
2023/10/25 10:19:25;;;;;;;22.45;10.98;;;;;;;-144.30;61.25;84986.94;5031762;28;20209;-81
2023/10/25 10:22:04;;;;;;;26.08;10.10;;;;;;;-144.30;61.13;84959.13;5031605;28;20225;-80
2023/10/25 10:24:46;;;;;;;23.08;10.68;;;;;;;-144.30;60.69;84935.25;5032569;28;20639;-79
2023/10/25 10:27:15;;;;;;;18.65;11.00;;;;;;;-144.30;60.38;84969.06;5032225;28;20662;-79
2023/10/25 10:29:43;;;;;;;31.50;10.35;;;;;;;-144.30;59.86;84919.34;5032146;28;20268;-78
2023/10/25 10:32:11;;;;;;;27.15;11.63;;;;;;;-144.30;59.93;84929.28;5032309;28;20220;-79
2023/10/25 10:34:40;;;;;;;38.50;11.52;;;;;;;-144.30;59.49;84909.41;5032475;28;20217;-78
2023/10/25 10:37:08;;;;;;;26.00;10.63;;;;;;;-144.30;59.15;84937.25;5032085;28;20284;-78
2023/10/25 10:39:37;;;;;;;18.55;10.15;;;;;;;-144.30;59.16;84927.31;5029504;28;20200;-77
2023/10/25 10:42:05;;;;;;;25.80;10.85;;;;;;;-144.30;59.52;84929.28;5033401;28;20200;-77
2023/10/25 10:44:35;;;;;;;33.45;10.70;;;;;;;-144.30;59.39;84895.50;5032961;28;20281;-78
2023/10/25 10:47:07;;;;;;;33.05;12.15;;;;;;;-144.30;59.47;84943.22;5033647;28;20196;-75
2023/10/25 10:49:36;;;;;;;28.00;11.23;;;;;;;-144.30;59.51;84939.25;5032473;28;20669;-75
2023/10/25 10:52:05;;;;;;;35.85;12.27;;;;;;;-144.30;59.13;84887.56;5032691;28;20193;-73
2023/10/25 10:54:32;;;;;;;29.40;11.98;;;;;;;-144.30;58.64;85197.66;5033338;28;20202;-76
2023/10/25 10:57:00;;;;;;;35.63;15.02;;;;;;;-144.30;58.82;84814.00;5034673;28;20194;-78
2023/10/25 10:59:29;;;;;;;23.27;12.65;;;;;;;-144.30;58.33;84881.59;5034323;28;20213;-77
2023/10/25 11:01:56;;;;;;;26.38;12.40;;;;;;;-144.30;58.45;84847.81;5034526;28;20659;-76
2023/10/25 11:04:24;;;;;;;42.95;11.80;;;;;;;-144.30;57.91;84833.88;5034921;28;20201;-77
2023/10/25 11:06:51;;;;;;;27.88;10.32;;;;;;;-144.30;57.84;84875.63;5034773;28;20200;-77
2023/10/25 11:09:18;;;;;;;27.08;10.27;;;;;;;-144.30;58.06;84891.53;5039813;28;20711;-76